Time;durP1;ratioP1;P1;durP2;ratioP2;P2;SDS_P1;SDS_P2;PMS_P1;PMS_P2;Temp;Humidity;BMP_temperature;BMP_pressure;BME280_temperature;BME280_humidity;BME280_pressure;Samples;Min_cycle;Max_cycle;Signal;HPM_P1;HPM_P2
2023/06/26 00:02:16;;;;;;;12.40;5.80;;;19.90;99.90;;;;;;4949927;29;20888;-74
2023/06/26 00:04:43;;;;;;;13.03;5.70;;;19.90;99.90;;;;;;4948675;29;20951;-74
2023/06/26 00:07:09;;;;;;;11.95;5.40;;;20.00;99.90;;;;;;4950315;29;20421;-74
2023/06/26 00:09:35;;;;;;;14.70;5.80;;;20.10;99.90;;;;;;4950232;29;20413;-74
2023/06/26 00:12:00;;;;;;;14.70;6.63;;;20.10;99.90;;;;;;4951435;29;20410;-74
2023/06/26 00:14:26;;;;;;;12.73;5.63;;;20.20;99.90;;;;;;4950646;29;20406;-74
2023/06/26 00:16:52;;;;;;;13.60;6.32;;;20.20;99.90;;;;;;4950206;29;20413;-74
2023/06/26 00:19:18;;;;;;;12.40;5.50;;;20.30;99.90;;;;;;4949978;29;20781;-74
2023/06/26 00:21:46;;;;;;;13.87;5.83;;;20.40;99.90;;;;;;4949962;28;20409;-74
2023/06/26 00:24:12;;;;;;;14.15;5.70;;;20.30;99.90;;;;;;4949783;29;20409;-74
2023/06/26 00:26:38;;;;;;;14.70;5.10;;;20.20;99.90;;;;;;4949284;29;20470;-74
2023/06/26 00:29:04;;;;;;;15.68;6.65;;;20.20;99.90;;;;;;4950326;29;20746;-74
2023/06/26 00:31:30;;;;;;;13.40;5.90;;;20.10;99.90;;;;;;4950175;29;20402;-74
2023/06/26 00:33:55;;;;;;;13.95;5.88;;;20.10;99.90;;;;;;4949617;29;20470;-75
2023/06/26 00:36:22;;;;;;;14.13;5.80;;;20.00;99.90;;;;;;4950014;29;20885;-74
2023/06/26 00:38:48;;;;;;;11.70;5.15;;;19.90;99.90;;;;;;4950111;29;20405;-74
2023/06/26 00:41:14;;;;;;;14.40;6.15;;;19.80;99.90;;;;;;4949532;29;20397;-74
2023/06/26 00:43:40;;;;;;;12.83;6.07;;;19.80;99.90;;;;;;4949651;29;20410;-74
2023/06/26 00:46:09;;;;;;;14.13;6.40;;;19.90;99.90;;;;;;4949733;29;20433;-74
2023/06/26 00:48:34;;;;;;;16.10;6.80;;;20.00;99.90;;;;;;4949956;29;20485;-74
2023/06/26 00:51:01;;;;;;;16.43;6.90;;;20.10;99.90;;;;;;4950201;29;20458;-74
2023/06/26 00:53:27;;;;;;;14.85;6.40;;;20.10;99.90;;;;;;4949503;29;20390;-74
2023/06/26 00:55:53;;;;;;;13.60;5.97;;;20.10;99.90;;;;;;4949671;29;21002;-74
2023/06/26 00:58:22;;;;;;;13.32;5.28;;;20.00;99.90;;;;;;4949662;29;20398;-74
2023/06/26 01:00:49;;;;;;;14.90;5.90;;;19.80;99.90;;;;;;4949691;29;20499;-74
2023/06/26 01:03:14;;;;;;;11.82;5.47;;;19.70;99.90;;;;;;4949156;29;20964;-76
2023/06/26 01:05:40;;;;;;;13.65;6.60;;;19.60;99.90;;;;;;4949511;29;20488;-75
2023/06/26 01:08:07;;;;;;;13.20;6.07;;;19.40;99.90;;;;;;4949485;29;20897;-75
2023/06/26 01:10:33;;;;;;;13.48;5.82;;;19.30;1.00;;;;;;4949609;29;20397;-76
2023/06/26 01:12:58;;;;;;;14.13;6.00;;;19.30;1.00;;;;;;4949699;29;20409;-76
2023/06/26 01:15:24;;;;;;;17.17;7.47;;;19.20;1.00;;;;;;4949643;29;20443;-76
2023/06/26 01:17:51;;;;;;;13.87;6.60;;;19.10;1.00;;;;;;4948987;29;20460;-76
2023/06/26 01:20:17;;;;;;;16.23;6.55;;;19.20;1.00;;;;;;4949414;29;20394;-75
2023/06/26 01:23:07;;;;;;;14.07;6.32;;;19.20;1.00;;;;;;4949252;29;20484;-75
2023/06/26 01:25:40;;;;;;;16.17;7.20;;;19.30;1.00;;;;;;4949671;29;20406;-76
2023/06/26 01:28:07;;;;;;;14.55;6.20;;;19.50;1.00;;;;;;4949369;29;20413;-76
2023/06/26 01:30:36;;;;;;;12.10;5.73;;;19.50;1.00;;;;;;4950180;29;20893;-76
2023/06/26 01:33:02;;;;;;;14.70;6.60;;;19.50;1.00;;;;;;4951668;28;20490;-76
2023/06/26 01:35:29;;;;;;;15.90;6.47;;;19.50;1.00;;;;;;4952653;29;20398;-75
2023/06/26 01:38:15;;;;;;;15.35;7.10;;;19.40;1.00;;;;;;4952895;29;20425;-75
2023/06/26 01:40:41;;;;;;;15.30;6.38;;;19.30;1.00;;;;;;4952713;29;20434;-75
2023/06/26 01:43:15;;;;;;;14.30;6.88;;;19.20;1.00;;;;;;4953192;28;20414;-76
2023/06/26 01:45:41;;;;;;;15.43;6.40;;;19.10;1.00;;;;;;4952423;29;21130;-76
2023/06/26 01:48:09;;;;;;;14.88;6.80;;;18.90;99.90;;;;;;4952903;29;20883;-76
2023/06/26 01:50:36;;;;;;;14.40;7.20;;;18.80;99.90;;;;;;4952781;29;20496;-76
2023/06/26 01:53:09;;;;;;;16.58;7.22;;;18.70;1.00;;;;;;4952913;29;20769;-76
2023/06/26 01:55:46;;;;;;;14.68;6.65;;;18.60;1.00;;;;;;4953006;29;20409;-76
2023/06/26 01:58:14;;;;;;;13.63;6.70;;;18.60;1.00;;;;;;4952418;29;20493;-76
2023/06/26 02:00:40;;;;;;;14.05;7.03;;;18.60;1.00;;;;;;4952408;28;20409;-76
2023/06/26 02:03:06;;;;;;;13.65;6.60;;;18.60;1.00;;;;;;4951970;29;20421;-76
2023/06/26 02:05:32;;;;;;;15.35;7.07;;;18.50;24.90;;;;;;4952728;29;20410;-76
2023/06/26 02:07:58;;;;;;;15.73;6.43;;;18.60;11.30;;;;;;4952641;29;20444;-76
2023/06/26 02:10:23;;;;;;;13.48;5.75;;;18.60;1.00;;;;;;4952066;29;20405;-76
2023/06/26 02:12:49;;;;;;;15.57;6.82;;;18.60;1.00;;;;;;4952642;29;20489;-76
2023/06/26 02:15:14;;;;;;;14.25;6.90;;;18.60;1.00;;;;;;4952295;29;20420;-76
2023/06/26 02:17:39;;;;;;;14.30;7.05;;;18.50;8.00;;;;;;4951848;29;20741;-76
2023/06/26 02:20:07;;;;;;;17.13;6.90;;;18.50;27.10;;;;;;4952583;29;20414;-76
2023/06/26 02:22:32;;;;;;;14.07;6.53;;;18.50;82.30;;;;;;4953209;29;20397;-75
2023/06/26 02:24:58;;;;;;;13.85;6.30;;;18.50;1.00;;;;;;4952584;29;20396;-76
2023/06/26 02:27:23;;;;;;;14.93;7.28;;;18.50;1.00;;;;;;4952335;29;20437;-76
2023/06/26 02:29:49;;;;;;;15.13;7.32;;;18.50;1.00;;;;;;4952162;29;20821;-76
2023/06/26 02:32:14;;;;;;;13.17;6.30;;;18.50;1.00;;;;;;4952203;29;20913;-76
2023/06/26 02:34:40;;;;;;;15.30;6.87;;;18.50;1.00;;;;;;4952280;29;20394;-76
2023/06/26 02:37:07;;;;;;;15.10;6.93;;;18.50;1.00;;;;;;4952004;29;20457;-76
2023/06/26 02:39:34;;;;;;;15.10;6.93;;;18.60;1.00;;;;;;4952138;29;20892;-76
2023/06/26 02:41:59;;;;;;;14.50;6.70;;;18.80;99.90;;;;;;4951645;29;20398;-76
2023/06/26 02:44:25;;;;;;;13.75;6.47;;;18.80;1.00;;;;;;4949960;28;20750;-76
2023/06/26 02:46:50;;;;;;;14.40;6.85;;;18.70;99.90;;;;;;4951723;29;21115;-76
2023/06/26 02:49:16;;;;;;;13.73;6.70;;;18.60;99.90;;;;;;4951384;29;20398;-76
2023/06/26 02:51:42;;;;;;;15.83;6.70;;;18.60;99.90;;;;;;4951592;29;20439;-75
2023/06/26 02:54:07;;;;;;;15.03;7.03;;;18.70;99.90;;;;;;4951538;29;20397;-75
2023/06/26 02:56:32;;;;;;;14.97;6.90;;;18.70;99.90;;;;;;4952110;28;20377;-75
2023/06/26 02:58:58;;;;;;;14.20;6.87;;;18.80;99.90;;;;;;4951214;29;20418;-76
2023/06/26 03:01:24;;;;;;;14.80;7.00;;;18.80;99.90;;;;;;4951027;29;20450;-76
2023/06/26 03:03:50;;;;;;;16.13;7.40;;;18.80;99.90;;;;;;4951305;29;20429;-75
2023/06/26 03:06:16;;;;;;;13.95;6.35;;;18.90;99.90;;;;;;4951027;29;20433;-75
2023/06/26 03:08:42;;;;;;;14.93;6.65;;;19.00;99.90;;;;;;4951014;29;20745;-75
2023/06/26 03:11:08;;;;;;;14.93;7.18;;;19.00;77.60;;;;;;4951061;29;20390;-76
2023/06/26 03:13:35;;;;;;;14.52;6.68;;;19.00;55.30;;;;;;4951484;29;20413;-75
2023/06/26 03:16:01;;;;;;;14.68;6.70;;;19.00;48.60;;;;;;4951748;29;20814;-75
2023/06/26 03:18:27;;;;;;;14.35;6.40;;;19.10;25.70;;;;;;4951089;29;20405;-75
2023/06/26 03:20:55;;;;;;;12.07;6.30;;;19.00;17.70;;;;;;4951207;29;20406;-75
2023/06/26 03:23:21;;;;;;;14.98;7.13;;;19.00;16.40;;;;;;4950799;29;20422;-75
2023/06/26 03:25:48;;;;;;;15.20;6.80;;;19.00;2.10;;;;;;4950858;29;20457;-75
2023/06/26 03:28:13;;;;;;;14.98;6.97;;;19.10;14.30;;;;;;4950641;29;20409;-75
2023/06/26 03:30:39;;;;;;;15.73;6.60;;;19.10;1.20;;;;;;4953915;28;20406;-75
2023/06/26 03:33:04;;;;;;;15.02;6.70;;;19.10;1.00;;;;;;4970924;28;20384;-75
2023/06/26 03:35:30;;;;;;;14.77;6.70;;;19.10;1.00;;;;;;4951333;28;20424;-76
2023/06/26 03:37:56;;;;;;;14.80;6.68;;;19.20;1.00;;;;;;4950608;29;20461;-76
2023/06/26 03:40:22;;;;;;;13.77;7.05;;;19.20;1.00;;;;;;4949973;28;20406;-76
2023/06/26 03:42:47;;;;;;;15.60;6.88;;;19.20;1.00;;;;;;4950421;29;20393;-76
2023/06/26 03:45:13;;;;;;;14.80;6.60;;;19.20;1.00;;;;;;4950740;29;20429;-75
2023/06/26 03:47:38;;;;;;;16.10;6.67;;;19.20;1.00;;;;;;4950745;29;20460;-75
2023/06/26 03:50:04;;;;;;;12.97;6.10;;;19.10;21.30;;;;;;4950826;29;20924;-75
2023/06/26 03:52:30;;;;;;;11.93;5.97;;;19.10;99.90;;;;;;4950788;28;20405;-75
2023/06/26 03:54:57;;;;;;;14.73;6.70;;;19.00;99.90;;;;;;4950383;28;20406;-75
2023/06/26 03:57:22;;;;;;;15.25;6.50;;;18.90;99.90;;;;;;4949867;29;20409;-75
2023/06/26 03:59:48;;;;;;;15.37;6.70;;;18.80;99.90;;;;;;4948304;29;20422;-75
2023/06/26 04:02:13;;;;;;;15.53;7.83;;;18.80;99.90;;;;;;4949817;29;20434;-75
2023/06/26 04:04:39;;;;;;;13.90;6.50;;;18.80;99.90;;;;;;4954983;28;20492;-76
2023/06/26 04:07:05;;;;;;;15.45;6.72;;;18.80;1.00;;;;;;4949782;28;20457;-76
2023/06/26 04:09:30;;;;;;;13.90;6.93;;;18.80;1.00;;;;;;4950202;28;20506;-76
2023/06/26 04:11:56;;;;;;;13.17;6.40;;;18.90;99.90;;;;;;4950202;29;20485;-76
2023/06/26 04:14:21;;;;;;;13.47;6.43;;;19.00;99.90;;;;;;4935851;28;20491;-76
2023/06/26 04:16:47;;;;;;;16.03;7.20;;;19.00;99.90;;;;;;4934404;28;20444;-76
2023/06/26 04:19:13;;;;;;;15.87;6.80;;;19.10;99.90;;;;;;4942825;28;20425;-76
2023/06/26 04:21:38;;;;;;;16.60;7.53;;;19.30;99.90;;;;;;4937209;29;20402;-76
2023/06/26 04:24:05;;;;;;;15.67;6.50;;;19.50;70.00;;;;;;4939168;29;20413;-76
2023/06/26 04:26:30;;;;;;;14.93;6.78;;;19.60;1.00;;;;;;4941843;29;20423;-76
2023/06/26 04:28:56;;;;;;;16.83;7.30;;;19.80;1.00;;;;;;4936267;29;20422;-76
2023/06/26 04:31:22;;;;;;;15.03;7.20;;;19.90;1.00;;;;;;4938360;29;20499;-74
2023/06/26 04:33:50;;;;;;;14.95;7.07;;;20.10;1.00;;;;;;4939519;29;20877;-74
2023/06/26 04:36:17;;;;;;;14.95;6.80;;;20.30;1.00;;;;;;4933310;29;20503;-74
2023/06/26 04:38:43;;;;;;;15.73;7.00;;;20.40;1.00;;;;;;4931019;29;20740;-74
2023/06/26 04:41:09;;;;;;;16.65;6.70;;;20.60;1.00;;;;;;4931265;29;20466;-74
2023/06/26 04:43:34;;;;;;;14.68;6.85;;;20.70;1.00;;;;;;4935074;29;20411;-74
2023/06/26 04:46:02;;;;;;;18.00;8.40;;;20.80;1.00;;;;;;4946322;29;20502;-74
2023/06/26 04:48:28;;;;;;;14.60;7.00;;;20.90;1.00;;;;;;4930559;29;20423;-74
2023/06/26 04:50:55;;;;;;;15.87;8.03;;;21.00;1.00;;;;;;4936850;29;20404;-74
2023/06/26 04:53:22;;;;;;;18.27;7.30;;;21.10;1.00;;;;;;4943985;28;20921;-74
2023/06/26 04:55:51;;;;;;;15.18;7.55;;;21.20;1.00;;;;;;4930916;29;20975;-74
2023/06/26 04:58:17;;;;;;;16.27;6.82;;;21.30;1.00;;;;;;4940522;29;20502;-74
2023/06/26 05:00:43;;;;;;;15.30;7.20;;;21.80;1.00;;;;;;4945335;29;20497;-77
2023/06/26 05:03:11;;;;;;;16.15;6.95;;;22.80;99.90;;;;;;4942977;29;20492;-74
2023/06/26 05:05:36;;;;;;;15.07;7.40;;;24.00;99.90;;;;;;4938074;29;20413;-74
2023/06/26 05:08:16;;;;;;;15.20;7.15;;;25.30;99.90;;;;;;4940447;28;20427;-74
2023/06/26 05:10:42;;;;;;;16.75;6.90;;;26.70;99.90;;;;;;4934055;28;20430;-74
2023/06/26 05:13:08;;;;;;;14.25;7.30;;;27.90;99.90;;;;;;4945040;29;20430;-74
2023/06/26 05:15:34;;;;;;;14.93;7.07;;;28.90;99.90;;;;;;4958698;28;20440;-74
2023/06/26 05:17:59;;;;;;;21.67;7.07;;;29.70;99.90;;;;;;4953473;29;20481;-74
2023/06/26 05:20:25;;;;;;;16.02;7.57;;;29.50;99.90;;;;;;4953033;29;20887;-74
2023/06/26 05:22:51;;;;;;;16.03;6.97;;;30.30;99.90;;;;;;4946486;29;20429;-74
2023/06/26 05:25:21;;;;;;;15.15;6.78;;;31.00;99.90;;;;;;4952620;29;20560;-74
2023/06/26 05:27:47;;;;;;;13.20;6.60;;;31.20;99.90;;;;;;4952513;29;20421;-74
2023/06/26 05:30:13;;;;;;;14.52;7.53;;;31.50;99.90;;;;;;4952983;29;20405;-74
2023/06/26 05:32:40;;;;;;;13.68;7.25;;;32.00;99.90;;;;;;4948482;29;20756;-74
2023/06/26 05:35:06;;;;;;;12.37;6.63;;;32.50;99.90;;;;;;4945549;28;20431;-74
2023/06/26 05:37:33;;;;;;;13.65;6.95;;;33.00;99.90;;;;;;4953631;29;20453;-74
2023/06/26 05:39:59;;;;;;;15.23;7.00;;;33.10;99.90;;;;;;4952479;29;20493;-74
2023/06/26 05:42:26;;;;;;;13.50;7.10;;;33.50;99.90;;;;;;4952346;29;20819;-74
2023/06/26 05:44:51;;;;;;;13.40;7.50;;;33.80;99.90;;;;;;4953151;29;20410;-75
2023/06/26 05:47:17;;;;;;;13.03;6.60;;;34.00;99.90;;;;;;4952887;29;20435;-75
2023/06/26 05:49:42;;;;;;;15.35;7.50;;;34.60;99.90;;;;;;4952774;29;20406;-75
2023/06/26 05:52:09;;;;;;;13.40;7.37;;;35.10;99.90;;;;;;4952677;29;20385;-74
2023/06/26 05:54:34;;;;;;;12.80;6.85;;;34.80;99.90;;;;;;4953219;29;20394;-75
2023/06/26 05:57:00;;;;;;;13.50;6.20;;;34.40;99.90;;;;;;4934904;29;20823;-75
2023/06/26 05:59:27;;;;;;;15.50;6.90;;;34.40;99.90;;;;;;4954324;29;20417;-75
2023/06/26 06:01:53;;;;;;;13.95;7.57;;;33.80;99.90;;;;;;4924218;29;20479;-74
2023/06/26 06:04:19;;;;;;;13.10;7.00;;;33.30;99.90;;;;;;4936668;29;20433;-74
2023/06/26 06:06:44;;;;;;;13.82;5.85;;;34.00;99.90;;;;;;4926105;29;20924;-74
2023/06/26 06:09:10;;;;;;;13.10;5.80;;;35.00;99.90;;;;;;4932632;29;20404;-75
2023/06/26 06:11:36;;;;;;;11.97;5.87;;;35.40;99.90;;;;;;4933132;29;20403;-75
2023/06/26 06:14:01;;;;;;;12.05;6.47;;;36.00;99.90;;;;;;4928479;29;20395;-75
2023/06/26 06:16:29;;;;;;;13.40;5.60;;;36.00;99.90;;;;;;4932996;29;20486;-75
2023/06/26 06:18:54;;;;;;;10.98;5.60;;;35.80;99.90;;;;;;4932562;29;20430;-75
2023/06/26 06:21:20;;;;;;;10.33;5.40;;;36.60;99.90;;;;;;4932543;29;20435;-75
2023/06/26 06:23:46;;;;;;;11.18;5.82;;;37.00;99.90;;;;;;4932492;29;20917;-75
2023/06/26 06:26:12;;;;;;;13.00;5.82;;;37.00;99.90;;;;;;4932456;29;20423;-75
2023/06/26 06:28:38;;;;;;;10.80;5.30;;;38.00;99.90;;;;;;4932422;29;20765;-75
2023/06/26 06:31:03;;;;;;;10.95;5.18;;;38.10;99.90;;;;;;4932879;29;20396;-75
2023/06/26 06:33:29;;;;;;;10.40;5.10;;;38.30;99.90;;;;;;4932404;29;20509;-75
2023/06/26 06:35:54;;;;;;;10.27;6.00;;;37.80;99.90;;;;;;4932278;29;20399;-75
2023/06/26 06:38:20;;;;;;;10.70;5.50;;;38.10;99.90;;;;;;4932420;29;20404;-75
2023/06/26 06:40:45;;;;;;;10.07;5.30;;;38.30;99.90;;;;;;4932004;29;20471;-75
2023/06/26 06:43:11;;;;;;;10.03;5.53;;;37.90;99.90;;;;;;4932336;29;20403;-75
2023/06/26 06:45:37;;;;;;;10.03;5.37;;;37.70;99.90;;;;;;4932557;29;20919;-75
2023/06/26 06:48:04;;;;;;;11.50;5.15;;;37.60;99.90;;;;;;4932492;29;20462;-75
2023/06/26 06:50:29;;;;;;;10.10;4.85;;;37.60;99.90;;;;;;4914965;29;20410;-75
2023/06/26 06:52:55;;;;;;;9.93;4.97;;;38.00;99.90;;;;;;4931814;29;20407;-75
2023/06/26 06:55:20;;;;;;;8.90;4.68;;;38.60;99.90;;;;;;4931798;29;20484;-75
2023/06/26 06:57:46;;;;;;;9.00;4.90;;;38.90;99.90;;;;;;4932092;29;20530;-75
2023/06/26 07:00:16;;;;;;;9.40;4.93;;;39.10;99.90;;;;;;4931544;29;20391;-75
2023/06/26 07:02:45;;;;;;;10.00;4.63;;;38.80;99.90;;;;;;4935100;29;20418;-75
2023/06/26 07:05:11;;;;;;;9.32;4.97;;;38.80;99.90;;;;;;4950869;29;20460;-75
2023/06/26 07:07:38;;;;;;;11.55;5.68;;;38.90;99.90;;;;;;4950782;29;20426;-73
2023/06/26 07:10:09;;;;;;;9.27;4.75;;;38.30;99.90;;;;;;4951393;29;20394;-74
2023/06/26 07:12:35;;;;;;;9.77;5.05;;;38.20;99.90;;;;;;4951152;29;20496;-74
2023/06/26 07:15:02;;;;;;;9.90;4.90;;;38.10;99.90;;;;;;4951198;29;20436;-75
2023/06/26 07:17:28;;;;;;;10.30;5.10;;;37.90;99.90;;;;;;4950719;29;20509;-75
2023/06/26 07:19:54;;;;;;;10.73;5.20;;;38.00;99.90;;;;;;4950661;29;20484;-75
2023/06/26 07:22:20;;;;;;;13.60;5.43;;;38.40;99.90;;;;;;4950860;29;20430;-75
2023/06/26 07:24:47;;;;;;;10.33;5.27;;;37.90;99.90;;;;;;4950629;29;20390;-74
2023/06/26 07:27:16;;;;;;;9.32;4.75;;;38.00;99.90;;;;;;4950509;29;20918;-75
2023/06/26 07:29:42;;;;;;;9.45;5.18;;;38.60;99.90;;;;;;4950231;28;20406;-75
2023/06/26 07:32:08;;;;;;;9.95;5.30;;;38.70;99.90;;;;;;4950263;29;20502;-75
2023/06/26 07:34:33;;;;;;;10.57;5.10;;;39.10;99.90;;;;;;4950696;29;20394;-75
2023/06/26 07:36:59;;;;;;;11.80;5.30;;;39.40;99.90;;;;;;4950241;29;20405;-75
2023/06/26 07:39:25;;;;;;;10.55;5.50;;;39.70;99.90;;;;;;4950126;29;20401;-75
2023/06/26 07:41:50;;;;;;;10.27;5.53;;;40.20;99.90;;;;;;4949922;29;20405;-75
2023/06/26 07:44:16;;;;;;;9.27;4.73;;;39.90;99.90;;;;;;4950216;29;20409;-75
2023/06/26 07:46:42;;;;;;;11.52;4.90;;;39.80;99.90;;;;;;4949711;29;20504;-75
2023/06/26 07:49:07;;;;;;;9.73;5.07;;;39.20;99.90;;;;;;4932797;29;20409;-75
2023/06/26 07:51:33;;;;;;;10.70;5.17;;;39.40;99.90;;;;;;4950700;29;20405;-75
2023/06/26 07:53:59;;;;;;;11.20;4.90;;;;;;;;;;4950225;29;20402;-75
2023/06/26 07:56:25;;;;;;;10.23;4.90;;;41.40;99.90;;;;;;4950207;29;20425;-75
2023/06/26 07:58:51;;;;;;;9.30;4.90;;;40.30;99.90;;;;;;4949880;29;20729;-75
2023/06/26 08:01:17;;;;;;;12.50;5.93;;;40.20;99.90;;;;;;4949977;29;20446;-75
2023/06/26 08:03:42;;;;;;;9.80;5.60;;;39.80;99.90;;;;;;4949543;29;20445;-75
2023/06/26 08:06:08;;;;;;;13.52;6.18;;;39.40;99.90;;;;;;4949861;29;20424;-75
2023/06/26 08:08:33;;;;;;;9.77;5.20;;;39.80;99.90;;;;;;4950329;29;20409;-76
2023/06/26 08:10:59;;;;;;;9.87;5.00;;;40.20;99.90;;;;;;4950307;29;20432;-75
2023/06/26 08:13:25;;;;;;;11.48;5.20;;;40.60;99.90;;;;;;4949547;29;21510;-75
2023/06/26 08:15:51;;;;;;;12.25;5.53;;;40.20;99.90;;;;;;4949797;29;20397;-75
2023/06/26 08:18:17;;;;;;;9.53;5.20;;;40.60;99.90;;;;;;4949472;29;20456;-75
2023/06/26 08:20:43;;;;;;;11.23;6.13;;;41.70;99.90;;;;;;4949742;29;20392;-76
2023/06/26 08:23:08;;;;;;;11.10;5.07;;;41.60;99.90;;;;;;4949034;29;20819;-76
2023/06/26 08:25:34;;;;;;;9.97;4.70;;;42.50;99.90;;;;;;4949908;29;20394;-76
2023/06/26 08:27:59;;;;;;;12.40;5.55;;;42.20;99.90;;;;;;4949571;29;20457;-76
2023/06/26 08:30:27;;;;;;;10.10;5.10;;;42.70;99.90;;;;;;4949610;29;20452;-76
2023/06/26 08:32:55;;;;;;;9.75;4.38;;;42.00;99.90;;;;;;4949765;29;20473;-76
2023/06/26 08:35:21;;;;;;;9.83;4.60;;;41.40;99.90;;;;;;4949268;29;20432;-75
2023/06/26 08:37:46;;;;;;;9.93;4.78;;;40.50;99.90;;;;;;4948981;29;20417;-75
2023/06/26 08:40:16;;;;;;;10.97;4.40;;;39.60;99.90;;;;;;4949112;29;20412;-75
2023/06/26 08:42:41;;;;;;;8.55;4.47;;;39.70;99.90;;;;;;4949320;28;20875;-75
2023/06/26 08:45:07;;;;;;;10.23;5.17;;;40.60;99.90;;;;;;4949426;29;20394;-75
2023/06/26 08:47:35;;;;;;;9.85;4.97;;;40.30;99.90;;;;;;4949646;29;20461;-75
2023/06/26 08:50:11;;;;;;;11.37;5.10;;;40.50;99.90;;;;;;4949345;29;20429;-75
2023/06/26 08:52:56;;;;;;;9.80;4.85;;;41.50;99.90;;;;;;4949071;29;20405;-75
2023/06/26 08:55:24;;;;;;;10.55;5.18;;;41.60;99.90;;;;;;4949194;29;20459;-75
2023/06/26 08:57:51;;;;;;;9.02;4.43;;;41.60;99.90;;;;;;4949221;29;20938;-75
2023/06/26 09:00:17;;;;;;;9.60;4.57;;;40.60;99.90;;;;;;4949246;29;20401;-75
2023/06/26 09:02:44;;;;;;;10.80;4.80;;;40.30;99.90;;;;;;4948662;29;20406;-75
2023/06/26 09:05:09;;;;;;;8.80;4.93;;;41.00;99.90;;;;;;4948875;29;20891;-75
2023/06/26 09:07:35;;;;;;;10.27;5.10;;;39.50;99.90;;;;;;4949187;29;20473;-75
2023/06/26 09:10:00;;;;;;;9.20;4.63;;;39.20;99.90;;;;;;4949768;29;20476;-75
2023/06/26 09:12:30;;;;;;;11.67;5.00;;;38.80;99.90;;;;;;4948927;29;20715;-75
2023/06/26 09:14:56;;;;;;;9.90;4.93;;;38.50;99.90;;;;;;4948836;29;20414;-75
2023/06/26 09:17:28;;;;;;;9.30;5.00;;;39.60;99.90;;;;;;4948813;29;20465;-75
2023/06/26 09:19:54;;;;;;;8.93;4.80;;;39.60;99.90;;;;;;4948944;29;20394;-75
2023/06/26 09:22:20;;;;;;;9.50;4.50;;;40.30;99.90;;;;;;4948904;29;20401;-75
2023/06/26 09:24:45;;;;;;;9.43;4.93;;;40.00;99.90;;;;;;4948982;29;20462;-75
2023/06/26 09:27:11;;;;;;;9.48;5.15;;;39.30;99.90;;;;;;4948718;29;20505;-75
2023/06/26 09:29:37;;;;;;;9.63;5.40;;;38.80;99.90;;;;;;4949461;29;20441;-75
2023/06/26 09:32:03;;;;;;;8.57;4.93;;;38.90;99.90;;;;;;4949771;29;20882;-75
2023/06/26 09:34:33;;;;;;;8.75;4.82;;;39.20;99.90;;;;;;4948868;29;20543;-75
2023/06/26 09:37:02;;;;;;;9.70;4.82;;;39.30;99.90;;;;;;4949810;29;20413;-75
2023/06/26 09:39:30;;;;;;;9.88;5.10;;;39.90;99.90;;;;;;4949970;29;20488;-75
2023/06/26 09:41:57;;;;;;;9.48;4.60;;;38.40;99.90;;;;;;4950451;29;20917;-75
2023/06/26 09:44:23;;;;;;;10.93;5.43;;;37.80;99.90;;;;;;4950765;29;20401;-76
2023/06/26 09:46:49;;;;;;;10.55;5.50;;;37.00;99.90;;;;;;4950262;29;20508;-76
2023/06/26 09:49:15;;;;;;;10.67;4.87;;;37.30;99.90;;;;;;4950072;29;20553;-75
2023/06/26 09:51:41;;;;;;;10.05;5.30;;;37.50;99.90;;;;;;4949602;29;20428;-75
2023/06/26 09:54:09;;;;;;;10.10;4.97;;;38.00;99.90;;;;;;4951029;28;20424;-75
2023/06/26 09:56:35;;;;;;;9.80;5.30;;;38.30;99.90;;;;;;4952784;29;20390;-75
2023/06/26 09:59:02;;;;;;;10.45;5.45;;;38.30;99.90;;;;;;4952259;29;20930;-75
2023/06/26 10:01:28;;;;;;;9.60;4.90;;;38.20;99.90;;;;;;4952067;29;20441;-75
2023/06/26 10:03:56;;;;;;;9.63;5.22;;;38.20;99.90;;;;;;4951561;29;20792;-75
2023/06/26 10:06:50;;;;;;;12.90;5.82;;;37.80;99.90;;;;;;4951798;29;20433;-75
2023/06/26 10:09:20;;;;;;;9.88;4.97;;;38.00;99.90;;;;;;4952090;29;20406;-76
2023/06/26 10:12:01;;;;;;;11.40;6.20;;;37.20;99.90;;;;;;4934820;29;20755;-76
2023/06/26 10:14:31;;;;;;;9.90;5.40;;;37.00;99.90;;;;;;4951302;29;20401;-76
2023/06/26 10:16:59;;;;;;;11.70;5.13;;;37.10;99.90;;;;;;4935123;29;20413;-75
2023/06/26 10:19:27;;;;;;;10.30;5.10;;;36.50;99.90;;;;;;4951702;29;20448;-75
2023/06/26 10:21:54;;;;;;;10.73;4.90;;;36.80;99.90;;;;;;4951888;29;20401;-75
2023/06/26 10:24:22;;;;;;;9.88;5.75;;;36.60;99.90;;;;;;4951546;29;20453;-75
2023/06/26 10:26:51;;;;;;;9.93;5.05;;;35.90;99.90;;;;;;4951306;29;20915;-76
2023/06/26 10:29:19;;;;;;;11.43;5.93;;;35.60;99.90;;;;;;4947306;28;20421;-76
2023/06/26 10:31:49;;;;;;;14.60;5.40;;;35.30;99.90;;;;;;4940974;28;20412;-73
2023/06/26 10:34:15;;;;;;;11.02;5.10;;;34.30;99.90;;;;;;4932315;29;20885;-72
2023/06/26 10:36:41;;;;;;;10.18;5.50;;;34.30;99.90;;;;;;4936515;29;20426;-73
2023/06/26 10:39:06;;;;;;;12.60;5.20;;;34.00;99.90;;;;;;4948645;28;20424;-73
2023/06/26 10:41:44;;;;;;;15.20;5.90;;;33.50;99.90;;;;;;4950478;28;20758;-73
2023/06/26 10:44:12;;;;;;;11.52;5.80;;;33.30;99.90;;;;;;4935657;29;20396;-73
2023/06/26 10:46:52;;;;;;;11.20;4.97;;;33.10;99.90;;;;;;4937836;29;20422;-76
2023/06/26 10:49:25;;;;;;;11.70;5.10;;;33.00;99.90;;;;;;4953784;29;20899;-75
2023/06/26 10:51:51;;;;;;;12.27;5.43;;;32.50;99.90;;;;;;4954057;29;20463;-75
2023/06/26 10:54:18;;;;;;;12.02;5.15;;;32.70;99.90;;;;;;4951130;29;20385;-75
2023/06/26 10:56:48;;;;;;;14.53;5.90;;;32.50;99.90;;;;;;4950507;29;20397;-75
2023/06/26 10:59:15;;;;;;;10.05;4.95;;;32.30;99.90;;;;;;4950756;29;20883;-75
2023/06/26 11:01:42;;;;;;;10.77;4.70;;;31.70;99.90;;;;;;4951067;29;20398;-76
2023/06/26 11:04:08;;;;;;;12.32;5.25;;;31.40;99.90;;;;;;4950422;28;20425;-76
2023/06/26 11:06:35;;;;;;;10.30;5.20;;;31.40;99.90;;;;;;4950594;29;20508;-76
2023/06/26 11:09:07;;;;;;;9.95;4.53;;;31.90;99.90;;;;;;4951474;29;20886;-75
2023/06/26 11:11:51;;;;;;;11.00;5.88;;;32.00;99.90;;;;;;4950882;29;20765;-76
2023/06/26 11:14:18;;;;;;;11.00;5.85;;;32.20;99.90;;;;;;4950606;29;20433;-76
2023/06/26 11:16:43;;;;;;;13.43;7.00;;;32.00;99.90;;;;;;4938048;29;20996;-76
2023/06/26 11:19:10;;;;;;;11.13;6.00;;;31.80;99.90;;;;;;4931353;29;20403;-76
2023/06/26 11:21:38;;;;;;;10.80;5.40;;;32.00;99.90;;;;;;4931428;29;20438;-76
2023/06/26 11:24:06;;;;;;;11.73;5.20;;;32.30;99.90;;;;;;4914855;29;20399;-76
2023/06/26 11:26:38;;;;;;;9.75;5.00;;;32.50;99.90;;;;;;4931656;29;20534;-76
2023/06/26 11:29:04;;;;;;;10.18;5.10;;;32.40;99.90;;;;;;4931961;29;20418;-76
2023/06/26 11:31:40;;;;;;;11.05;4.90;;;32.10;99.90;;;;;;4950121;29;20547;-76
2023/06/26 11:34:09;;;;;;;10.57;4.63;;;31.60;99.90;;;;;;4950590;29;20948;-76
2023/06/26 11:36:36;;;;;;;10.85;5.07;;;31.70;99.90;;;;;;4951050;29;20855;-76
2023/06/26 11:39:05;;;;;;;11.38;4.82;;;31.70;99.90;;;;;;4950492;29;20910;-76
2023/06/26 11:41:32;;;;;;;10.88;5.35;;;31.60;99.90;;;;;;4950337;29;20393;-76
2023/06/26 11:44:05;;;;;;;13.95;5.07;;;31.20;99.90;;;;;;4950384;29;20457;-75
2023/06/26 11:46:31;;;;;;;12.77;5.47;;;31.10;99.90;;;;;;4942468;29;20791;-76
2023/06/26 11:48:58;;;;;;;9.90;5.20;;;31.40;99.90;;;;;;4950017;29;20413;-76
2023/06/26 11:51:23;;;;;;;10.50;4.90;;;31.20;99.90;;;;;;4950457;29;20974;-76
2023/06/26 11:53:49;;;;;;;10.63;5.00;;;31.30;99.90;;;;;;4950087;29;20481;-76
2023/06/26 11:56:16;;;;;;;12.00;4.53;;;31.40;99.90;;;;;;4950069;29;20397;-76
2023/06/26 11:59:00;;;;;;;13.48;5.43;;;31.30;99.90;;;;;;4937245;29;20416;-76
2023/06/26 12:01:30;;;;;;;14.27;6.25;;;31.30;99.90;;;;;;4931073;29;20983;-76
2023/06/26 12:04:00;;;;;;;10.90;5.30;;;31.60;99.90;;;;;;4942954;28;20543;-76
2023/06/26 12:06:26;;;;;;;10.50;5.10;;;31.90;99.90;;;;;;4969257;28;20435;-77
2023/06/26 12:08:52;;;;;;;13.57;5.28;;;31.60;99.90;;;;;;4969330;28;20422;-76
2023/06/26 12:11:19;;;;;;;10.18;4.90;;;31.60;99.90;;;;;;4940103;28;20964;-76
2023/06/26 12:13:46;;;;;;;9.77;5.17;;;31.70;99.90;;;;;;4943452;29;20488;-76
2023/06/26 12:16:13;;;;;;;10.67;4.70;;;31.80;99.90;;;;;;4934801;29;20402;-78
2023/06/26 12:18:40;;;;;;;12.70;5.10;;;31.60;99.90;;;;;;4936401;29;20492;-79
2023/06/26 12:21:05;;;;;;;11.43;5.50;;;31.60;99.90;;;;;;4955601;28;20414;-77
2023/06/26 12:23:39;;;;;;;9.90;5.03;;;31.50;99.90;;;;;;4950523;29;20993;-76
2023/06/26 12:26:19;;;;;;;9.88;5.25;;;31.40;99.90;;;;;;4950692;29;21285;-77
2023/06/26 12:28:45;;;;;;;11.85;5.30;;;31.30;99.90;;;;;;4956404;28;20439;-76
2023/06/26 12:31:15;;;;;;;13.15;5.40;;;31.20;99.90;;;;;;4954225;28;20454;-76
2023/06/26 12:33:42;;;;;;;11.20;4.93;;;31.10;99.90;;;;;;4948485;29;20440;-77
2023/06/26 12:36:14;;;;;;;12.75;5.50;;;31.00;99.90;;;;;;4937506;29;20522;-75
2023/06/26 12:38:41;;;;;;;10.75;5.25;;;31.00;99.90;;;;;;4944492;28;20461;-76
2023/06/26 12:41:15;;;;;;;14.25;5.35;;;31.20;99.90;;;;;;4948916;29;20394;-76